Webcam Meteoipassi more information Webcam Meteoipassi


Pisa torre orologio more information Pisa torre orologio


altri nostri siti meteo:

Pomeziameteo 1Sito sul meteo

Pomeziameteo DashboardSito sul meteo

Caput FrigorisSito sul meteo

BarcellonameteoSito sul meteo

MeteoipassiSito sul meteo

ViterbometeoSito sul meteo

MeteotortoretoSito sul meteo

TortoretometeolidoSito sul meteo

MeteoGonzagaSito sul meteo



Nessuna attenzione particolare richiesta.    Non ci sono allerte meteo

Report METAR

   
LIRQ - Firenze
Dati ricevuti: Apr 25 2019 3:50 am
Parzialmente nuvoloso  
Parzialmente nuvoloso  
   Vento: NO 1.9 km/h
Vento: NO 1.9 km/h
Temperatura: 10°C
P.to Rugiada: 9°C
Umidita: 94%
Barometro: 1018 hPa
Nuvole: Parzialmente nuvoloso
Visibilita: 8 km
dettagli cloud: Parzialmente nuvoloso
LIRQ 250150Z 32001KT 8000 R05/0900U NSC 10/09 Q1018
LIRP - Lucca
Dati ricevuti: Apr 25 2019 3:15 am
Patches of, Nebbia, Nebbia, Poche nuvole  
Patches of, Nebbia, Nebbia, Poche nuvole  
   Vento: SE 1.9 km/h
Vento: SE 1.9 km/h
Temperatura: 10°C
P.to Rugiada: 10°C
Umidita: 100%
Barometro: 1018 hPa
Nuvole: Poche nuvole
Visibilita: 5 km
dettagli cloud: Poche nuvole 30.5 m
LIRP 250115Z 11001KT 5000 0900SW BCFG BR FEW001 10/10 Q1018 TEMPO 3000
LIRP - Livorno
Dati ricevuti: Apr 25 2019 3:15 am
Patches of, Nebbia, Nebbia, Poche nuvole  
Patches of, Nebbia, Nebbia, Poche nuvole  
   Vento: SE 1.9 km/h
Vento: SE 1.9 km/h
Temperatura: 10°C
P.to Rugiada: 10°C
Umidita: 100%
Barometro: 1018 hPa
Nuvole: Poche nuvole
Visibilita: 5 km
dettagli cloud: Poche nuvole 30.5 m
LIRP 250115Z 11001KT 5000 0900SW BCFG BR FEW001 10/10 Q1018 TEMPO 3000
LIMP - Parma
Dati ricevuti: Apr 24 2019 8:50 pm
DATI Obsoleti
Molto nuvoloso  
Molto nuvoloso  
   Vento: Variabile 3.7 km/h
Vento: Variabile 3.7 km/h
Temperatura: 17°C
P.to Rugiada: 15°C
Umidita: 88%
Barometro: 1015 hPa
Nuvole: Molto nuvoloso
Visibilita: oltre 10 km
dettagli cloud: Molto nuvoloso 914.4 m
LIMP 241850Z VRB02KT 9999 BKN030 17/15 Q1015
LIRF - Roma
Dati ricevuti: Apr 25 2019 3:50 am
Sereno  
Sereno  
   Vento: Oriente 3.7 km/h
Vento: Oriente 3.7 km/h
Temperatura: 12°C
P.to Rugiada: 12°C
Umidita: 100%
Barometro: 1017 hPa
Visibilita: oltre 10 km
dettagli cloud: Sereno
LIRF 250150Z 08002KT CAVOK 12/12 Q1017 NOSIG
 

Script sviluppato da  Saratoga-weather.org Adattato per il modello da  Weerstation Leuven

Potete trovare le nostre info meteo anche a:

European Weather Network

Weather Underground

AWEKAS

HAMweather, WeatherForYou, PWS Weather

Strumentazione usata:

Stazione meteo
Oregon Scientific WMR88

Programma gestore dati meteo
WVIEW

Server per i dati meteo
WDS-5

Provider
Anemos WDS-5

Oregon Scientific WMR88

WVIEW

WDS-5

Anemos WDS-5